sensor_id;sensor_type;location;lat;lon;timestamp;P1;durP1;ratioP1;P2;durP2;ratioP2
12151;SDS011;6139;51.274;7.128;2023-06-14T00:00:48;5.72;;;5.22;;
12151;SDS011;6139;51.274;7.128;2023-06-14T00:01:50;5.28;;;4.88;;
12151;SDS011;6139;51.274;7.128;2023-06-14T00:02:53;6.88;;;5.78;;
12151;SDS011;6139;51.274;7.128;2023-06-14T00:03:56;5.82;;;5.22;;
12151;SDS011;6139;51.274;7.128;2023-06-14T00:04:59;5.75;;;5.13;;
12151;SDS011;6139;51.274;7.128;2023-06-14T00:06:00;5.65;;;5.00;;
12151;SDS011;6139;51.274;7.128;2023-06-14T00:07:02;6.57;;;5.38;;
12151;SDS011;6139;51.274;7.128;2023-06-14T00:08:04;6.07;;;5.13;;
12151;SDS011;6139;51.274;7.128;2023-06-14T00:09:08;8.65;;;5.32;;
12151;SDS011;6139;51.274;7.128;2023-06-14T00:10:09;6.00;;;5.47;;
12151;SDS011;6139;51.274;7.128;2023-06-14T00:11:12;9.07;;;5.70;;
12151;SDS011;6139;51.274;7.128;2023-06-14T00:12:13;5.95;;;5.40;;
12151;SDS011;6139;51.274;7.128;2023-06-14T00:13:15;7.10;;;4.97;;
12151;SDS011;6139;51.274;7.128;2023-06-14T00:14:16;6.43;;;5.57;;
12151;SDS011;6139;51.274;7.128;2023-06-14T00:15:18;6.05;;;5.20;;
12151;SDS011;6139;51.274;7.128;2023-06-14T00:16:19;6.60;;;5.00;;
12151;SDS011;6139;51.274;7.128;2023-06-14T00:17:23;6.90;;;5.55;;
12151;SDS011;6139;51.274;7.128;2023-06-14T00:18:25;7.35;;;5.22;;
12151;SDS011;6139;51.274;7.128;2023-06-14T00:19:29;5.90;;;5.30;;
12151;SDS011;6139;51.274;7.128;2023-06-14T00:20:34;5.93;;;5.20;;
12151;SDS011;6139;51.274;7.128;2023-06-14T00:21:37;6.32;;;5.00;;
12151;SDS011;6139;51.274;7.128;2023-06-14T00:22:38;6.85;;;6.07;;
12151;SDS011;6139;51.274;7.128;2023-06-14T00:23:40;6.22;;;5.57;;
12151;SDS011;6139;51.274;7.128;2023-06-14T00:24:41;6.43;;;5.55;;
12151;SDS011;6139;51.274;7.128;2023-06-14T00:25:43;5.47;;;4.97;;
12151;SDS011;6139;51.274;7.128;2023-06-14T00:26:44;5.63;;;5.10;;
12151;SDS011;6139;51.274;7.128;2023-06-14T00:27:47;5.38;;;4.97;;
12151;SDS011;6139;51.274;7.128;2023-06-14T00:28:49;8.25;;;5.20;;
12151;SDS011;6139;51.274;7.128;2023-06-14T00:29:51;6.57;;;5.40;;
12151;SDS011;6139;51.274;7.128;2023-06-14T00:30:52;6.25;;;5.38;;
12151;SDS011;6139;51.274;7.128;2023-06-14T00:31:55;6.25;;;5.65;;
12151;SDS011;6139;51.274;7.128;2023-06-14T00:32:57;7.50;;;5.32;;
12151;SDS011;6139;51.274;7.128;2023-06-14T00:34:00;5.85;;;5.25;;
12151;SDS011;6139;51.274;7.128;2023-06-14T00:35:01;5.97;;;5.38;;
12151;SDS011;6139;51.274;7.128;2023-06-14T00:36:04;5.72;;;5.05;;
12151;SDS011;6139;51.274;7.128;2023-06-14T00:37:05;6.95;;;5.30;;
12151;SDS011;6139;51.274;7.128;2023-06-14T00:38:09;6.07;;;5.53;;
12151;SDS011;6139;51.274;7.128;2023-06-14T00:39:10;5.78;;;4.75;;
12151;SDS011;6139;51.274;7.128;2023-06-14T00:40:12;5.97;;;5.38;;
12151;SDS011;6139;51.274;7.128;2023-06-14T00:41:13;6.63;;;5.90;;
12151;SDS011;6139;51.274;7.128;2023-06-14T00:42:23;6.25;;;5.47;;
12151;SDS011;6139;51.274;7.128;2023-06-14T00:43:25;7.18;;;5.85;;
12151;SDS011;6139;51.274;7.128;2023-06-14T00:44:27;6.47;;;5.40;;
12151;SDS011;6139;51.274;7.128;2023-06-14T00:45:29;7.68;;;5.25;;
12151;SDS011;6139;51.274;7.128;2023-06-14T00:46:36;6.00;;;5.40;;
12151;SDS011;6139;51.274;7.128;2023-06-14T00:47:37;7.20;;;5.78;;
12151;SDS011;6139;51.274;7.128;2023-06-14T00:48:41;6.38;;;5.50;;
12151;SDS011;6139;51.274;7.128;2023-06-14T00:49:42;7.45;;;5.32;;
12151;SDS011;6139;51.274;7.128;2023-06-14T00:50:46;5.85;;;5.20;;
12151;SDS011;6139;51.274;7.128;2023-06-14T00:51:50;6.20;;;5.60;;
12151;SDS011;6139;51.274;7.128;2023-06-14T00:52:53;5.70;;;5.20;;
12151;SDS011;6139;51.274;7.128;2023-06-14T00:53:54;6.18;;;5.57;;
12151;SDS011;6139;51.274;7.128;2023-06-14T00:54:56;7.13;;;5.50;;
12151;SDS011;6139;51.274;7.128;2023-06-14T00:55:57;6.00;;;5.40;;
12151;SDS011;6139;51.274;7.128;2023-06-14T00:56:59;6.22;;;5.70;;
12151;SDS011;6139;51.274;7.128;2023-06-14T00:58:00;6.20;;;5.22;;
12151;SDS011;6139;51.274;7.128;2023-06-14T00:59:03;5.85;;;5.25;;
12151;SDS011;6139;51.274;7.128;2023-06-14T01:00:05;5.78;;;5.22;;
12151;SDS011;6139;51.274;7.128;2023-06-14T01:01:28;11.15;;;5.45;;
12151;SDS011;6139;51.274;7.128;2023-06-14T01:02:47;8.57;;;5.20;;
12151;SDS011;6139;51.274;7.128;2023-06-14T01:04:11;5.75;;;5.15;;
12151;SDS011;6139;51.274;7.128;2023-06-14T01:05:30;6.45;;;5.13;;
12151;SDS011;6139;51.274;7.128;2023-06-14T01:06:33;5.80;;;4.95;;
12151;SDS011;6139;51.274;7.128;2023-06-14T01:07:51;7.55;;;5.25;;
12151;SDS011;6139;51.274;7.128;2023-06-14T01:09:03;6.30;;;5.30;;
12151;SDS011;6139;51.274;7.128;2023-06-14T01:10:13;5.72;;;5.10;;
12151;SDS011;6139;51.274;7.128;2023-06-14T01:11:36;6.28;;;5.15;;
12151;SDS011;6139;51.274;7.128;2023-06-14T01:12:48;6.38;;;4.97;;
12151;SDS011;6139;51.274;7.128;2023-06-14T01:13:57;7.20;;;5.00;;
12151;SDS011;6139;51.274;7.128;2023-06-14T01:15:02;7.40;;;5.25;;
12151;SDS011;6139;51.274;7.128;2023-06-14T01:16:06;6.95;;;4.90;;
12151;SDS011;6139;51.274;7.128;2023-06-14T01:17:08;5.60;;;5.10;;
12151;SDS011;6139;51.274;7.128;2023-06-14T01:18:15;5.63;;;5.13;;
12151;SDS011;6139;51.274;7.128;2023-06-14T01:19:18;5.90;;;5.40;;
12151;SDS011;6139;51.274;7.128;2023-06-14T01:20:23;6.22;;;5.30;;
12151;SDS011;6139;51.274;7.128;2023-06-14T01:21:30;5.88;;;4.80;;
12151;SDS011;6139;51.274;7.128;2023-06-14T01:22:34;6.50;;;4.88;;
12151;SDS011;6139;51.274;7.128;2023-06-14T01:23:37;9.15;;;6.03;;
12151;SDS011;6139;51.274;7.128;2023-06-14T01:24:39;5.50;;;4.93;;
12151;SDS011;6139;51.274;7.128;2023-06-14T01:25:46;5.70;;;5.20;;
12151;SDS011;6139;51.274;7.128;2023-06-14T01:26:53;5.70;;;5.10;;
12151;SDS011;6139;51.274;7.128;2023-06-14T01:27:57;5.50;;;5.00;;
12151;SDS011;6139;51.274;7.128;2023-06-14T01:29:01;5.78;;;5.18;;
12151;SDS011;6139;51.274;7.128;2023-06-14T01:30:04;5.50;;;4.90;;
12151;SDS011;6139;51.274;7.128;2023-06-14T01:31:06;6.35;;;5.22;;
12151;SDS011;6139;51.274;7.128;2023-06-14T01:32:12;5.63;;;5.00;;
12151;SDS011;6139;51.274;7.128;2023-06-14T01:33:15;5.80;;;5.10;;
12151;SDS011;6139;51.274;7.128;2023-06-14T01:34:19;6.20;;;5.50;;
12151;SDS011;6139;51.274;7.128;2023-06-14T01:35:20;5.57;;;5.07;;
12151;SDS011;6139;51.274;7.128;2023-06-14T01:36:22;7.07;;;4.93;;
12151;SDS011;6139;51.274;7.128;2023-06-14T01:37:26;5.65;;;5.15;;
12151;SDS011;6139;51.274;7.128;2023-06-14T01:38:29;7.03;;;5.10;;
12151;SDS011;6139;51.274;7.128;2023-06-14T01:39:33;6.30;;;5.03;;
12151;SDS011;6139;51.274;7.128;2023-06-14T01:40:36;6.82;;;5.40;;
12151;SDS011;6139;51.274;7.128;2023-06-14T01:41:39;8.40;;;4.90;;
12151;SDS011;6139;51.274;7.128;2023-06-14T01:42:42;5.25;;;4.75;;
12151;SDS011;6139;51.274;7.128;2023-06-14T01:43:44;6.03;;;5.20;;
12151;SDS011;6139;51.274;7.128;2023-06-14T01:44:48;6.63;;;4.93;;
12151;SDS011;6139;51.274;7.128;2023-06-14T01:45:51;9.32;;;5.50;;
12151;SDS011;6139;51.274;7.128;2023-06-14T01:46:53;5.80;;;5.20;;
12151;SDS011;6139;51.274;7.128;2023-06-14T01:47:57;6.05;;;5.10;;
12151;SDS011;6139;51.274;7.128;2023-06-14T01:48:58;7.22;;;4.63;;
12151;SDS011;6139;51.274;7.128;2023-06-14T01:50:01;6.28;;;5.35;;
12151;SDS011;6139;51.274;7.128;2023-06-14T01:51:04;6.72;;;5.30;;
12151;SDS011;6139;51.274;7.128;2023-06-14T01:52:07;5.18;;;4.60;;
12151;SDS011;6139;51.274;7.128;2023-06-14T01:53:10;9.52;;;5.20;;
12151;SDS011;6139;51.274;7.128;2023-06-14T01:54:12;9.07;;;4.80;;
12151;SDS011;6139;51.274;7.128;2023-06-14T01:55:15;7.50;;;4.95;;
12151;SDS011;6139;51.274;7.128;2023-06-14T01:56:18;4.95;;;4.55;;
12151;SDS011;6139;51.274;7.128;2023-06-14T01:57:22;6.13;;;5.40;;
12151;SDS011;6139;51.274;7.128;2023-06-14T01:58:27;6.68;;;5.00;;
12151;SDS011;6139;51.274;7.128;2023-06-14T01:59:28;8.13;;;5.25;;
12151;SDS011;6139;51.274;7.128;2023-06-14T02:00:31;5.50;;;5.00;;
12151;SDS011;6139;51.274;7.128;2023-06-14T02:01:32;5.20;;;4.80;;
12151;SDS011;6139;51.274;7.128;2023-06-14T02:02:36;6.10;;;5.22;;
12151;SDS011;6139;51.274;7.128;2023-06-14T02:03:37;6.18;;;5.57;;
12151;SDS011;6139;51.274;7.128;2023-06-14T02:04:40;5.40;;;4.90;;
12151;SDS011;6139;51.274;7.128;2023-06-14T02:05:41;6.72;;;4.78;;
12151;SDS011;6139;51.274;7.128;2023-06-14T02:06:43;6.18;;;5.55;;
12151;SDS011;6139;51.274;7.128;2023-06-14T02:07:45;6.60;;;4.97;;
12151;SDS011;6139;51.274;7.128;2023-06-14T02:08:51;6.97;;;4.88;;
12151;SDS011;6139;51.274;7.128;2023-06-14T02:09:52;5.20;;;4.70;;
12151;SDS011;6139;51.274;7.128;2023-06-14T02:10:58;8.68;;;4.90;;
12151;SDS011;6139;51.274;7.128;2023-06-14T02:11:59;5.40;;;4.75;;
12151;SDS011;6139;51.274;7.128;2023-06-14T02:13:03;5.70;;;4.82;;
12151;SDS011;6139;51.274;7.128;2023-06-14T02:14:04;5.40;;;4.90;;
12151;SDS011;6139;51.274;7.128;2023-06-14T02:15:07;5.28;;;4.75;;
12151;SDS011;6139;51.274;7.128;2023-06-14T02:16:10;5.53;;;4.80;;
12151;SDS011;6139;51.274;7.128;2023-06-14T02:17:12;6.10;;;4.68;;
12151;SDS011;6139;51.274;7.128;2023-06-14T02:18:14;7.75;;;4.70;;
12151;SDS011;6139;51.274;7.128;2023-06-14T02:19:16;4.88;;;4.47;;
12151;SDS011;6139;51.274;7.128;2023-06-14T02:20:18;6.22;;;4.93;;
12151;SDS011;6139;51.274;7.128;2023-06-14T02:21:20;5.72;;;4.80;;
12151;SDS011;6139;51.274;7.128;2023-06-14T02:22:22;6.38;;;5.00;;
12151;SDS011;6139;51.274;7.128;2023-06-14T02:23:24;5.30;;;4.68;;
12151;SDS011;6139;51.274;7.128;2023-06-14T02:24:25;5.13;;;4.63;;
12151;SDS011;6139;51.274;7.128;2023-06-14T02:25:27;5.45;;;4.90;;
12151;SDS011;6139;51.274;7.128;2023-06-14T02:26:29;5.35;;;4.85;;
12151;SDS011;6139;51.274;7.128;2023-06-14T02:27:32;6.07;;;4.70;;
12151;SDS011;6139;51.274;7.128;2023-06-14T02:28:33;6.13;;;4.70;;
12151;SDS011;6139;51.274;7.128;2023-06-14T02:29:36;5.25;;;4.40;;
12151;SDS011;6139;51.274;7.128;2023-06-14T02:30:38;8.38;;;4.80;;
12151;SDS011;6139;51.274;7.128;2023-06-14T02:31:41;5.72;;;4.57;;
12151;SDS011;6139;51.274;7.128;2023-06-14T02:32:42;4.93;;;4.53;;
12151;SDS011;6139;51.274;7.128;2023-06-14T02:33:46;5.53;;;4.47;;
12151;SDS011;6139;51.274;7.128;2023-06-14T02:34:48;6.75;;;4.65;;
12151;SDS011;6139;51.274;7.128;2023-06-14T02:35:50;6.15;;;4.93;;
12151;SDS011;6139;51.274;7.128;2023-06-14T02:36:53;6.03;;;4.60;;
12151;SDS011;6139;51.274;7.128;2023-06-14T02:37:54;5.15;;;4.65;;
12151;SDS011;6139;51.274;7.128;2023-06-14T02:38:56;4.75;;;4.35;;
12151;SDS011;6139;51.274;7.128;2023-06-14T02:39:58;6.85;;;4.68;;
12151;SDS011;6139;51.274;7.128;2023-06-14T02:41:00;5.38;;;4.88;;
12151;SDS011;6139;51.274;7.128;2023-06-14T02:42:03;6.18;;;4.13;;
12151;SDS011;6139;51.274;7.128;2023-06-14T02:43:06;4.95;;;4.43;;
12151;SDS011;6139;51.274;7.128;2023-06-14T02:44:07;6.10;;;4.68;;
12151;SDS011;6139;51.274;7.128;2023-06-14T02:45:12;5.47;;;4.88;;
12151;SDS011;6139;51.274;7.128;2023-06-14T02:46:13;4.88;;;4.43;;
12151;SDS011;6139;51.274;7.128;2023-06-14T02:47:15;6.55;;;4.57;;
12151;SDS011;6139;51.274;7.128;2023-06-14T02:48:18;5.80;;;4.65;;
12151;SDS011;6139;51.274;7.128;2023-06-14T02:49:20;6.20;;;4.90;;
12151;SDS011;6139;51.274;7.128;2023-06-14T02:50:21;5.75;;;5.05;;
12151;SDS011;6139;51.274;7.128;2023-06-14T02:51:24;6.22;;;4.82;;
12151;SDS011;6139;51.274;7.128;2023-06-14T02:52:25;6.68;;;4.80;;
12151;SDS011;6139;51.274;7.128;2023-06-14T02:53:27;6.75;;;4.80;;
12151;SDS011;6139;51.274;7.128;2023-06-14T02:54:28;5.38;;;4.30;;
12151;SDS011;6139;51.274;7.128;2023-06-14T02:55:30;7.05;;;4.95;;
12151;SDS011;6139;51.274;7.128;2023-06-14T02:56:32;5.40;;;4.90;;
12151;SDS011;6139;51.274;7.128;2023-06-14T02:57:35;5.10;;;4.68;;
12151;SDS011;6139;51.274;7.128;2023-06-14T02:58:38;8.57;;;5.05;;
12151;SDS011;6139;51.274;7.128;2023-06-14T02:59:40;6.63;;;4.70;;
12151;SDS011;6139;51.274;7.128;2023-06-14T03:00:42;5.90;;;4.80;;
12151;SDS011;6139;51.274;7.128;2023-06-14T03:01:43;5.03;;;4.63;;
12151;SDS011;6139;51.274;7.128;2023-06-14T03:02:48;5.63;;;4.80;;
12151;SDS011;6139;51.274;7.128;2023-06-14T03:03:51;7.13;;;4.72;;
12151;SDS011;6139;51.274;7.128;2023-06-14T03:04:53;4.68;;;4.25;;
12151;SDS011;6139;51.274;7.128;2023-06-14T03:05:54;8.13;;;5.60;;
12151;SDS011;6139;51.274;7.128;2023-06-14T03:07:01;6.25;;;4.60;;
12151;SDS011;6139;51.274;7.128;2023-06-14T03:08:03;5.03;;;4.53;;
12151;SDS011;6139;51.274;7.128;2023-06-14T03:09:06;8.18;;;5.28;;
12151;SDS011;6139;51.274;7.128;2023-06-14T03:10:11;5.25;;;4.75;;
12151;SDS011;6139;51.274;7.128;2023-06-14T03:11:15;7.82;;;4.70;;
12151;SDS011;6139;51.274;7.128;2023-06-14T03:12:21;5.90;;;4.72;;
12151;SDS011;6139;51.274;7.128;2023-06-14T03:13:25;7.32;;;4.82;;
12151;SDS011;6139;51.274;7.128;2023-06-14T03:14:27;5.18;;;4.57;;
12151;SDS011;6139;51.274;7.128;2023-06-14T03:15:29;5.15;;;4.75;;
12151;SDS011;6139;51.274;7.128;2023-06-14T03:16:33;5.15;;;4.70;;
12151;SDS011;6139;51.274;7.128;2023-06-14T03:17:35;5.25;;;4.40;;
12151;SDS011;6139;51.274;7.128;2023-06-14T03:18:39;4.85;;;4.25;;
12151;SDS011;6139;51.274;7.128;2023-06-14T03:19:41;6.13;;;4.63;;
12151;SDS011;6139;51.274;7.128;2023-06-14T03:20:43;6.43;;;4.43;;
12151;SDS011;6139;51.274;7.128;2023-06-14T03:21:46;5.40;;;4.90;;
12151;SDS011;6139;51.274;7.128;2023-06-14T03:22:49;5.32;;;4.82;;
12151;SDS011;6139;51.274;7.128;2023-06-14T03:23:50;6.20;;;4.93;;
12151;SDS011;6139;51.274;7.128;2023-06-14T03:24:53;7.40;;;4.30;;
12151;SDS011;6139;51.274;7.128;2023-06-14T03:25:55;7.30;;;4.40;;
12151;SDS011;6139;51.274;7.128;2023-06-14T03:26:57;5.13;;;4.45;;
12151;SDS011;6139;51.274;7.128;2023-06-14T03:28:00;5.32;;;4.25;;
12151;SDS011;6139;51.274;7.128;2023-06-14T03:29:03;4.97;;;4.40;;
12151;SDS011;6139;51.274;7.128;2023-06-14T03:30:05;5.18;;;4.45;;
12151;SDS011;6139;51.274;7.128;2023-06-14T03:31:09;6.45;;;4.13;;
12151;SDS011;6139;51.274;7.128;2023-06-14T03:32:10;8.25;;;4.50;;
12151;SDS011;6139;51.274;7.128;2023-06-14T03:33:17;5.20;;;4.70;;
12151;SDS011;6139;51.274;7.128;2023-06-14T03:34:19;6.00;;;4.60;;
12151;SDS011;6139;51.274;7.128;2023-06-14T03:35:21;6.28;;;4.85;;
12151;SDS011;6139;51.274;7.128;2023-06-14T03:36:23;5.10;;;4.43;;
12151;SDS011;6139;51.274;7.128;2023-06-14T03:37:25;5.03;;;4.10;;
12151;SDS011;6139;51.274;7.128;2023-06-14T03:38:26;5.22;;;4.63;;
12151;SDS011;6139;51.274;7.128;2023-06-14T03:39:29;4.55;;;4.15;;
12151;SDS011;6139;51.274;7.128;2023-06-14T03:40:30;5.07;;;4.50;;
12151;SDS011;6139;51.274;7.128;2023-06-14T03:41:36;5.93;;;4.60;;
12151;SDS011;6139;51.274;7.128;2023-06-14T03:42:37;5.13;;;4.65;;
12151;SDS011;6139;51.274;7.128;2023-06-14T03:43:40;5.13;;;4.60;;
12151;SDS011;6139;51.274;7.128;2023-06-14T03:44:42;4.78;;;4.35;;
12151;SDS011;6139;51.274;7.128;2023-06-14T03:45:45;5.00;;;4.50;;
12151;SDS011;6139;51.274;7.128;2023-06-14T03:46:46;5.78;;;4.78;;
12151;SDS011;6139;51.274;7.128;2023-06-14T03:47:49;4.88;;;4.38;;
12151;SDS011;6139;51.274;7.128;2023-06-14T03:48:50;6.43;;;3.85;;
12151;SDS011;6139;51.274;7.128;2023-06-14T03:49:52;5.43;;;4.32;;
12151;SDS011;6139;51.274;7.128;2023-06-14T03:50:54;5.03;;;4.53;;
12151;SDS011;6139;51.274;7.128;2023-06-14T03:51:56;6.00;;;4.30;;
12151;SDS011;6139;51.274;7.128;2023-06-14T03:52:58;5.20;;;4.70;;
12151;SDS011;6139;51.274;7.128;2023-06-14T03:54:01;7.60;;;4.00;;
12151;SDS011;6139;51.274;7.128;2023-06-14T03:55:03;6.00;;;4.20;;
12151;SDS011;6139;51.274;7.128;2023-06-14T03:56:07;4.72;;;4.22;;
12151;SDS011;6139;51.274;7.128;2023-06-14T03:57:14;7.32;;;4.10;;
12151;SDS011;6139;51.274;7.128;2023-06-14T03:58:17;4.50;;;4.10;;
12151;SDS011;6139;51.274;7.128;2023-06-14T03:59:20;6.82;;;4.47;;
12151;SDS011;6139;51.274;7.128;2023-06-14T04:00:23;5.05;;;4.55;;
12151;SDS011;6139;51.274;7.128;2023-06-14T04:01:25;4.70;;;4.20;;
12151;SDS011;6139;51.274;7.128;2023-06-14T04:02:29;5.28;;;4.10;;
12151;SDS011;6139;51.274;7.128;2023-06-14T04:03:33;6.53;;;4.13;;
12151;SDS011;6139;51.274;7.128;2023-06-14T04:04:35;6.70;;;4.18;;
12151;SDS011;6139;51.274;7.128;2023-06-14T04:05:41;4.85;;;4.45;;
12151;SDS011;6139;51.274;7.128;2023-06-14T04:06:42;5.80;;;4.10;;
12151;SDS011;6139;51.274;7.128;2023-06-14T04:07:45;5.10;;;4.32;;
12151;SDS011;6139;51.274;7.128;2023-06-14T04:08:49;5.07;;;4.57;;
12151;SDS011;6139;51.274;7.128;2023-06-14T04:09:51;5.72;;;4.40;;
12151;SDS011;6139;51.274;7.128;2023-06-14T04:10:52;5.05;;;4.30;;
12151;SDS011;6139;51.274;7.128;2023-06-14T04:11:54;5.68;;;3.88;;
12151;SDS011;6139;51.274;7.128;2023-06-14T04:12:56;5.60;;;4.32;;
12151;SDS011;6139;51.274;7.128;2023-06-14T04:13:58;4.90;;;3.95;;
12151;SDS011;6139;51.274;7.128;2023-06-14T04:15:00;4.78;;;4.30;;
12151;SDS011;6139;51.274;7.128;2023-06-14T04:16:05;4.38;;;3.97;;
12151;SDS011;6139;51.274;7.128;2023-06-14T04:17:09;6.82;;;4.65;;
12151;SDS011;6139;51.274;7.128;2023-06-14T04:18:12;5.38;;;4.50;;
12151;SDS011;6139;51.274;7.128;2023-06-14T04:19:13;6.10;;;4.78;;
12151;SDS011;6139;51.274;7.128;2023-06-14T04:20:15;7.32;;;4.75;;
12151;SDS011;6139;51.274;7.128;2023-06-14T04:21:17;6.10;;;4.47;;
12151;SDS011;6139;51.274;7.128;2023-06-14T04:22:20;6.28;;;4.93;;
12151;SDS011;6139;51.274;7.128;2023-06-14T04:23:21;5.20;;;4.57;;
12151;SDS011;6139;51.274;7.128;2023-06-14T04:24:24;5.72;;;4.45;;
12151;SDS011;6139;51.274;7.128;2023-06-14T04:25:29;5.30;;;4.53;;
12151;SDS011;6139;51.274;7.128;2023-06-14T04:26:32;6.10;;;4.88;;
12151;SDS011;6139;51.274;7.128;2023-06-14T04:27:34;6.68;;;4.63;;
12151;SDS011;6139;51.274;7.128;2023-06-14T04:28:38;9.25;;;4.75;;
12151;SDS011;6139;51.274;7.128;2023-06-14T04:29:41;6.60;;;4.72;;
12151;SDS011;6139;51.274;7.128;2023-06-14T04:30:46;5.43;;;4.93;;
12151;SDS011;6139;51.274;7.128;2023-06-14T04:31:51;8.63;;;5.00;;
12151;SDS011;6139;51.274;7.128;2023-06-14T04:32:59;5.82;;;5.22;;
12151;SDS011;6139;51.274;7.128;2023-06-14T04:34:01;6.20;;;4.97;;
12151;SDS011;6139;51.274;7.128;2023-06-14T04:35:06;5.05;;;4.60;;
12151;SDS011;6139;51.274;7.128;2023-06-14T04:36:09;8.40;;;4.95;;
12151;SDS011;6139;51.274;7.128;2023-06-14T04:37:13;8.13;;;5.10;;
12151;SDS011;6139;51.274;7.128;2023-06-14T04:38:16;5.53;;;4.50;;
12151;SDS011;6139;51.274;7.128;2023-06-14T04:39:19;9.00;;;5.25;;
12151;SDS011;6139;51.274;7.128;2023-06-14T04:40:21;5.28;;;4.15;;
12151;SDS011;6139;51.274;7.128;2023-06-14T04:41:23;5.28;;;4.75;;
12151;SDS011;6139;51.274;7.128;2023-06-14T04:42:29;6.13;;;4.93;;
12151;SDS011;6139;51.274;7.128;2023-06-14T04:43:34;9.82;;;5.30;;
12151;SDS011;6139;51.274;7.128;2023-06-14T04:44:39;6.57;;;4.75;;
12151;SDS011;6139;51.274;7.128;2023-06-14T04:45:42;5.57;;;5.00;;
12151;SDS011;6139;51.274;7.128;2023-06-14T04:46:46;8.98;;;5.22;;
12151;SDS011;6139;51.274;7.128;2023-06-14T04:47:57;6.13;;;5.05;;
12151;SDS011;6139;51.274;7.128;2023-06-14T04:49:01;8.20;;;4.95;;
12151;SDS011;6139;51.274;7.128;2023-06-14T04:50:04;5.65;;;5.15;;
12151;SDS011;6139;51.274;7.128;2023-06-14T04:51:06;6.35;;;4.80;;
12151;SDS011;6139;51.274;7.128;2023-06-14T04:52:08;9.65;;;5.50;;
12151;SDS011;6139;51.274;7.128;2023-06-14T04:53:14;6.40;;;4.35;;
12151;SDS011;6139;51.274;7.128;2023-06-14T04:54:16;6.63;;;4.75;;
12151;SDS011;6139;51.274;7.128;2023-06-14T04:55:20;5.95;;;4.70;;
12151;SDS011;6139;51.274;7.128;2023-06-14T04:56:24;6.13;;;4.72;;
12151;SDS011;6139;51.274;7.128;2023-06-14T04:57:26;5.82;;;4.82;;
12151;SDS011;6139;51.274;7.128;2023-06-14T04:58:32;6.18;;;4.68;;
12151;SDS011;6139;51.274;7.128;2023-06-14T04:59:33;5.70;;;4.45;;
12151;SDS011;6139;51.274;7.128;2023-06-14T05:00:36;6.10;;;5.18;;
12151;SDS011;6139;51.274;7.128;2023-06-14T05:01:37;8.10;;;5.00;;
12151;SDS011;6139;51.274;7.128;2023-06-14T05:02:40;5.45;;;4.50;;
12151;SDS011;6139;51.274;7.128;2023-06-14T05:03:42;5.45;;;4.88;;
12151;SDS011;6139;51.274;7.128;2023-06-14T05:04:45;7.30;;;4.60;;
12151;SDS011;6139;51.274;7.128;2023-06-14T05:05:47;8.18;;;4.85;;
12151;SDS011;6139;51.274;7.128;2023-06-14T05:06:52;7.85;;;4.90;;
12151;SDS011;6139;51.274;7.128;2023-06-14T05:07:55;6.82;;;5.03;;
12151;SDS011;6139;51.274;7.128;2023-06-14T05:08:58;5.40;;;4.82;;
12151;SDS011;6139;51.274;7.128;2023-06-14T05:10:00;7.65;;;4.93;;
12151;SDS011;6139;51.274;7.128;2023-06-14T05:11:01;5.78;;;4.82;;
12151;SDS011;6139;51.274;7.128;2023-06-14T05:12:03;6.35;;;4.85;;
12151;SDS011;6139;51.274;7.128;2023-06-14T05:13:05;8.15;;;5.13;;
12151;SDS011;6139;51.274;7.128;2023-06-14T05:14:07;9.30;;;5.43;;
12151;SDS011;6139;51.274;7.128;2023-06-14T05:15:09;6.85;;;5.07;;
12151;SDS011;6139;51.274;7.128;2023-06-14T05:16:12;5.63;;;4.65;;
12151;SDS011;6139;51.274;7.128;2023-06-14T05:17:16;5.70;;;4.60;;
12151;SDS011;6139;51.274;7.128;2023-06-14T05:18:18;6.60;;;5.15;;
12151;SDS011;6139;51.274;7.128;2023-06-14T05:19:20;7.35;;;4.97;;
12151;SDS011;6139;51.274;7.128;2023-06-14T05:20:23;5.07;;;4.57;;
12151;SDS011;6139;51.274;7.128;2023-06-14T05:21:25;6.22;;;4.75;;
12151;SDS011;6139;51.274;7.128;2023-06-14T05:22:27;6.68;;;4.70;;
12151;SDS011;6139;51.274;7.128;2023-06-14T05:23:28;17.20;;;5.40;;
12151;SDS011;6139;51.274;7.128;2023-06-14T05:24:30;9.55;;;5.30;;
12151;SDS011;6139;51.274;7.128;2023-06-14T05:25:32;7.50;;;5.20;;
12151;SDS011;6139;51.274;7.128;2023-06-14T05:26:34;7.93;;;5.10;;
12151;SDS011;6139;51.274;7.128;2023-06-14T05:27:36;7.45;;;5.60;;
12151;SDS011;6139;51.274;7.128;2023-06-14T05:28:38;5.03;;;4.53;;
12151;SDS011;6139;51.274;7.128;2023-06-14T05:29:39;9.30;;;5.45;;
12151;SDS011;6139;51.274;7.128;2023-06-14T05:30:42;6.47;;;4.72;;
12151;SDS011;6139;51.274;7.128;2023-06-14T05:31:44;6.13;;;4.50;;
12151;SDS011;6139;51.274;7.128;2023-06-14T05:32:45;5.18;;;4.47;;
12151;SDS011;6139;51.274;7.128;2023-06-14T05:33:47;7.25;;;4.45;;
12151;SDS011;6139;51.274;7.128;2023-06-14T05:34:50;7.43;;;4.43;;
12151;SDS011;6139;51.274;7.128;2023-06-14T05:35:52;9.95;;;5.00;;
12151;SDS011;6139;51.274;7.128;2023-06-14T05:36:53;6.68;;;4.65;;
12151;SDS011;6139;51.274;7.128;2023-06-14T05:37:55;6.00;;;4.50;;
12151;SDS011;6139;51.274;7.128;2023-06-14T05:38:57;7.82;;;4.30;;
12151;SDS011;6139;51.274;7.128;2023-06-14T05:40:00;5.18;;;4.30;;
12151;SDS011;6139;51.274;7.128;2023-06-14T05:41:04;6.00;;;4.15;;
12151;SDS011;6139;51.274;7.128;2023-06-14T05:42:05;8.15;;;4.15;;
12151;SDS011;6139;51.274;7.128;2023-06-14T05:43:08;6.53;;;4.40;;
12151;SDS011;6139;51.274;7.128;2023-06-14T05:44:09;5.88;;;4.55;;
12151;SDS011;6139;51.274;7.128;2023-06-14T05:45:27;3.95;;;3.53;;
12151;SDS011;6139;51.274;7.128;2023-06-14T05:46:28;6.68;;;3.83;;
12151;SDS011;6139;51.274;7.128;2023-06-14T05:47:30;7.75;;;4.10;;
12151;SDS011;6139;51.274;7.128;2023-06-14T05:48:31;5.35;;;3.90;;
12151;SDS011;6139;51.274;7.128;2023-06-14T05:49:33;7.20;;;4.13;;
12151;SDS011;6139;51.274;7.128;2023-06-14T05:50:36;8.68;;;4.20;;
12151;SDS011;6139;51.274;7.128;2023-06-14T05:51:39;8.65;;;4.20;;
12151;SDS011;6139;51.274;7.128;2023-06-14T05:52:41;6.32;;;4.00;;
12151;SDS011;6139;51.274;7.128;2023-06-14T05:53:43;9.35;;;3.78;;
12151;SDS011;6139;51.274;7.128;2023-06-14T05:54:44;6.35;;;3.90;;
12151;SDS011;6139;51.274;7.128;2023-06-14T05:55:46;5.50;;;4.47;;
12151;SDS011;6139;51.274;7.128;2023-06-14T05:56:47;5.65;;;3.83;;
12151;SDS011;6139;51.274;7.128;2023-06-14T05:57:49;6.57;;;3.65;;
12151;SDS011;6139;51.274;7.128;2023-06-14T05:58:50;3.83;;;3.40;;
12151;SDS011;6139;51.274;7.128;2023-06-14T05:59:52;6.28;;;4.10;;
12151;SDS011;6139;51.274;7.128;2023-06-14T06:00:52;7.85;;;3.70;;
12151;SDS011;6139;51.274;7.128;2023-06-14T06:01:54;6.32;;;3.95;;
12151;SDS011;6139;51.274;7.128;2023-06-14T06:02:55;9.05;;;4.30;;
12151;SDS011;6139;51.274;7.128;2023-06-14T06:03:58;7.00;;;3.90;;
12151;SDS011;6139;51.274;7.128;2023-06-14T06:04:59;6.55;;;3.65;;
12151;SDS011;6139;51.274;7.128;2023-06-14T06:06:02;7.68;;;3.97;;
12151;SDS011;6139;51.274;7.128;2023-06-14T06:07:03;5.13;;;3.83;;
12151;SDS011;6139;51.274;7.128;2023-06-14T06:08:06;6.30;;;4.03;;
12151;SDS011;6139;51.274;7.128;2023-06-14T06:09:07;6.30;;;3.45;;
12151;SDS011;6139;51.274;7.128;2023-06-14T06:10:09;9.07;;;3.72;;
12151;SDS011;6139;51.274;7.128;2023-06-14T06:11:10;4.53;;;3.30;;
12151;SDS011;6139;51.274;7.128;2023-06-14T06:12:12;4.43;;;4.03;;
12151;SDS011;6139;51.274;7.128;2023-06-14T06:13:13;8.98;;;4.40;;
12151;SDS011;6139;51.274;7.128;2023-06-14T06:14:15;5.32;;;3.55;;
12151;SDS011;6139;51.274;7.128;2023-06-14T06:15:16;4.45;;;3.65;;
12151;SDS011;6139;51.274;7.128;2023-06-14T06:16:19;5.47;;;3.47;;
12151;SDS011;6139;51.274;7.128;2023-06-14T06:17:20;6.40;;;3.40;;
12151;SDS011;6139;51.274;7.128;2023-06-14T06:18:25;6.28;;;4.07;;
12151;SDS011;6139;51.274;7.128;2023-06-14T06:19:30;7.22;;;3.38;;
12151;SDS011;6139;51.274;7.128;2023-06-14T06:20:31;4.07;;;3.65;;
12151;SDS011;6139;51.274;7.128;2023-06-14T06:21:37;6.43;;;3.78;;
12151;SDS011;6139;51.274;7.128;2023-06-14T06:22:41;5.53;;;3.72;;
12151;SDS011;6139;51.274;7.128;2023-06-14T06:23:43;4.00;;;3.45;;
12151;SDS011;6139;51.274;7.128;2023-06-14T06:24:44;4.60;;;3.50;;
12151;SDS011;6139;51.274;7.128;2023-06-14T06:25:46;7.35;;;3.72;;